Time;durP1;ratioP1;P1;durP2;ratioP2;P2;SDS_P1;SDS_P2;PMS_P1;PMS_P2;Temp;Humidity;BMP_temperature;BMP_pressure;BME280_temperature;BME280_humidity;BME280_pressure;Samples;Min_cycle;Max_cycle;Signal;HPM_P1;HPM_P2
2023/11/08 00:00:14;;;;;;;1.33;0.90;;;;;;;8.90;83.62;100228.25;5018270;28;20323;-80
2023/11/08 00:02:41;;;;;;;2.33;1.13;;;;;;;8.89;84.05;100229.22;5023040;28;20226;-81
2023/11/08 00:05:08;;;;;;;1.57;1.10;;;;;;;8.87;84.33;100234.63;5025333;28;20209;-80
2023/11/08 00:07:35;;;;;;;1.13;0.87;;;;;;;8.88;84.54;100233.66;5021682;28;20662;-81
2023/11/08 00:10:01;;;;;;;1.70;1.13;;;;;;;8.90;83.70;100231.78;5019417;28;20282;-81
2023/11/08 00:12:29;;;;;;;1.47;1.07;;;;;;;8.89;84.62;100227.41;5025912;28;20202;-80
2023/11/08 00:14:57;;;;;;;2.70;0.80;;;;;;;8.90;83.71;100228.25;5018437;28;20216;-81
2023/11/08 00:17:25;;;;;;;2.23;0.90;;;;;;;8.88;83.87;100227.50;5018820;28;20210;-81
2023/11/08 00:19:52;;;;;;;3.73;1.17;;;;;;;8.90;83.97;100222.97;5014996;28;20845;-81
2023/11/08 00:22:18;;;;;;;1.57;0.90;;;;;;;8.94;84.23;100230.63;5017517;28;20223;-82
2023/11/08 00:24:45;;;;;;;1.50;0.80;;;;;;;8.90;83.88;100233.56;5012888;28;20219;-82
2023/11/08 00:27:11;;;;;;;2.00;0.90;;;;;;;8.94;84.59;100227.97;5017362;28;20210;-81
2023/11/08 00:29:39;;;;;;;1.13;0.90;;;;;;;8.91;84.68;100237.94;5017019;28;20233;-80
2023/11/08 00:32:06;;;;;;;1.40;0.87;;;;;;;8.90;84.16;100241.53;5022349;28;20210;-82
2023/11/08 00:34:33;;;;;;;0.87;0.70;;;;;;;8.91;84.53;100229.97;5018877;28;20199;-81
2023/11/08 00:36:59;;;;;;;3.07;1.20;;;;;;;8.92;84.42;100242.31;5022974;28;20203;-81
2023/11/08 00:39:26;;;;;;;1.33;0.70;;;;;;;8.91;84.06;100240.59;5028159;28;20323;-81
2023/11/08 00:41:52;;;;;;;5.40;1.70;;;;;;;8.93;84.77;100244.88;5027622;28;20206;-81
2023/11/08 00:44:22;;;;;;;1.93;0.90;;;;;;;8.91;84.24;100244.09;5017135;28;20203;-81
2023/11/08 00:46:50;;;;;;;1.77;1.17;;;;;;;8.92;84.55;100240.50;5022539;28;20210;-81
2023/11/08 00:49:17;;;;;;;6.70;2.30;;;;;;;8.91;84.24;100236.13;5020110;28;20230;-81
2023/11/08 00:51:44;;;;;;;4.10;0.80;;;;;;;8.97;84.14;100248.16;5014752;28;20221;-81
2023/11/08 00:54:11;;;;;;;4.53;1.40;;;;;;;8.97;84.48;100241.03;5017540;28;20199;-81
2023/11/08 00:56:38;;;;;;;1.57;0.90;;;;;;;8.97;84.39;100240.19;5025566;28;20207;-81
2023/11/08 00:59:05;;;;;;;1.73;0.80;;;;;;;9.00;84.08;100240.00;5014922;28;20206;-81
2023/11/08 01:01:34;;;;;;;3.13;1.00;;;;;;;8.97;84.64;100237.53;5021246;28;20209;-81
2023/11/08 01:04:03;;;;;;;1.57;1.10;;;;;;;8.99;84.32;100228.53;5017174;28;20227;-82
2023/11/08 01:06:30;;;;;;;1.97;0.90;;;;;;;9.02;84.29;100235.44;5018763;28;20231;-81
2023/11/08 01:08:56;;;;;;;1.50;0.77;;;;;;;9.03;84.02;100234.50;5024913;28;20208;-81
2023/11/08 01:11:23;;;;;;;2.43;0.73;;;;;;;9.02;84.15;100235.44;5023428;28;20254;-81
2023/11/08 01:13:50;;;;;;;1.90;0.90;;;;;;;8.97;84.63;100235.72;5027032;28;20217;-79
2023/11/08 01:16:16;;;;;;;2.20;1.00;;;;;;;8.96;84.70;100241.13;5024720;28;20707;-80
2023/11/08 01:18:43;;;;;;;2.60;0.97;;;;;;;8.99;85.10;100241.81;5024657;28;20213;-79
2023/11/08 01:21:10;;;;;;;1.17;0.80;;;;;;;8.98;85.38;100242.75;5025864;28;20234;-82
2023/11/08 01:23:38;;;;;;;1.63;0.90;;;;;;;9.00;85.11;100243.50;5021711;28;20225;-81
2023/11/08 01:26:05;;;;;;;1.40;0.80;;;;;;;8.99;85.67;100227.66;5027326;28;20202;-80
2023/11/08 01:28:32;;;;;;;1.50;0.80;;;;;;;9.03;84.98;100239.81;5026989;28;20267;-81
2023/11/08 01:30:58;;;;;;;1.50;1.10;;;;;;;9.00;85.03;100246.16;5021664;28;20233;-79
2023/11/08 01:33:25;;;;;;;1.57;1.10;;;;;;;9.02;85.85;100241.63;5021923;28;20295;-80
2023/11/08 01:35:51;;;;;;;1.97;1.00;;;;;;;9.01;85.91;100237.25;5028082;28;20219;-81
2023/11/08 01:38:19;;;;;;;3.13;1.00;;;;;;;8.99;86.17;100239.16;5029647;28;20220;-80
2023/11/08 01:40:45;;;;;;;1.87;1.10;;;;;;;9.00;86.41;100237.34;5028939;28;20226;-80
2023/11/08 01:43:26;;;;;;;3.03;1.40;;;;;;;9.00;86.29;100240.84;5026991;28;20235;-80
2023/11/08 01:45:59;;;;;;;1.57;1.10;;;;;;;9.01;86.04;100234.59;5026310;28;20207;-81
2023/11/08 01:48:25;;;;;;;2.40;1.23;;;;;;;9.02;86.34;100232.78;5025613;28;20203;-81
2023/11/08 01:50:52;;;;;;;2.80;1.50;;;;;;;9.07;85.88;100237.81;5027345;28;20225;-80
2023/11/08 01:53:20;;;;;;;2.23;1.47;;;;;;;9.08;85.58;100236.88;5026349;28;20948;-79
2023/11/08 01:55:46;;;;;;;2.17;1.30;;;;;;;9.07;85.80;100236.03;5023722;28;20210;-79
2023/11/08 01:58:13;;;;;;;3.27;1.20;;;;;;;9.04;85.71;100239.72;5024031;28;20203;-80
2023/11/08 02:00:42;;;;;;;2.83;1.10;;;;;;;9.09;86.16;100238.59;5025625;28;20234;-81
2023/11/08 02:03:08;;;;;;;2.27;1.17;;;;;;;9.08;86.39;100226.25;5022167;28;20227;-81
2023/11/08 02:05:35;;;;;;;3.43;1.10;;;;;;;9.08;87.61;100231.56;5022780;28;20202;-79
2023/11/08 02:08:02;;;;;;;2.73;1.10;;;;;;;9.09;87.93;100233.28;5024112;28;20218;-81
2023/11/08 02:10:30;;;;;;;3.20;1.20;;;;;;;9.14;87.71;100239.13;5020019;28;20233;-81
2023/11/08 02:12:59;;;;;;;2.03;1.43;;;;;;;9.15;87.19;100232.84;5027347;28;20657;-81
2023/11/08 02:15:27;;;;;;;2.50;1.20;;;;;;;9.15;87.34;100227.53;5025541;28;20258;-81
2023/11/08 02:17:53;;;;;;;2.07;1.20;;;;;;;9.11;87.30;100221.59;5024344;28;20203;-81
2023/11/08 02:20:20;;;;;;;2.30;1.03;;;;;;;9.13;87.57;100230.31;5021583;28;20241;-80
2023/11/08 02:22:46;;;;;;;2.10;1.00;;;;;;;9.11;87.43;100234.88;5014575;28;20251;-81
2023/11/08 02:25:15;;;;;;;3.53;0.90;;;;;;;9.10;87.53;100232.31;5018481;28;20219;-81
2023/11/08 02:27:47;;;;;;;2.83;1.60;;;;;;;9.06;88.13;100231.66;5024269;28;20256;-81
2023/11/08 02:30:14;;;;;;;2.27;1.40;;;;;;;9.02;88.15;100233.66;5023810;28;20219;-81
2023/11/08 02:32:41;;;;;;;1.13;1.03;;;;;;;9.01;88.63;100231.94;5026793;28;20229;-81
2023/11/08 02:35:08;;;;;;;1.30;1.20;;;;;;;8.98;88.55;100232.13;5021294;28;20222;-80
2023/11/08 02:37:35;;;;;;;3.27;1.63;;;;;;;9.01;88.43;100242.56;5025586;28;20203;-81
2023/11/08 02:40:03;;;;;;;2.33;1.80;;;;;;;9.01;88.87;100234.59;5026386;28;20226;-81
2023/11/08 02:42:31;;;;;;;3.10;1.80;;;;;;;8.97;88.77;100238.38;5024070;28;20203;-81
2023/11/08 02:44:58;;;;;;;3.07;1.50;;;;;;;8.97;89.86;100235.72;5023607;28;20195;-80
2023/11/08 02:47:24;;;;;;;1.90;1.67;;;;;;;8.98;89.35;100237.44;5020142;28;20229;-81
2023/11/08 02:49:51;;;;;;;2.80;1.67;;;;;;;8.98;89.47;100236.59;5024636;28;20241;-81
2023/11/08 02:52:17;;;;;;;1.90;1.70;;;;;;;9.00;89.46;100232.88;5025666;28;20207;-82
2023/11/08 02:54:44;;;;;;;2.20;1.37;;;;;;;9.02;89.40;100233.66;5022915;28;20686;-80
2023/11/08 02:57:15;;;;;;;3.73;1.80;;;;;;;8.98;89.34;100231.28;5023859;28;20238;-82
2023/11/08 02:59:43;;;;;;;3.37;1.80;;;;;;;8.97;90.04;100229.56;5031907;28;20648;-80
2023/11/08 03:02:10;;;;;;;3.00;1.70;;;;;;;8.95;89.96;100237.66;5026757;28;20216;-80
2023/11/08 03:04:38;;;;;;;2.40;1.80;;;;;;;8.96;90.08;100242.00;5022364;28;20227;-81
2023/11/08 03:07:05;;;;;;;1.97;1.53;;;;;;;8.94;90.05;100235.94;5023211;28;20217;-80
2023/11/08 03:09:32;;;;;;;3.57;1.63;;;;;;;8.95;90.39;100236.81;5028533;28;20238;-80
2023/11/08 03:11:58;;;;;;;4.23;1.97;;;;;;;8.98;90.74;100237.44;5022293;28;20298;-82
2023/11/08 03:14:25;;;;;;;1.73;1.50;;;;;;;8.97;90.81;100235.72;5027546;28;20723;-81
2023/11/08 03:16:53;;;;;;;3.93;1.60;;;;;;;8.98;91.15;100248.06;5022898;28;20236;-82
2023/11/08 03:19:20;;;;;;;1.70;1.60;;;;;;;8.95;91.04;100236.81;5022146;28;20242;-80
2023/11/08 03:21:47;;;;;;;3.37;2.00;;;;;;;8.94;91.01;100235.09;5026086;28;20207;-81
2023/11/08 03:24:13;;;;;;;3.30;2.20;;;;;;;8.93;91.87;100239.56;5026836;28;20223;-81
2023/11/08 03:26:40;;;;;;;3.17;2.37;;;;;;;8.88;91.85;100235.47;5031917;28;20216;-81
2023/11/08 03:29:07;;;;;;;3.83;2.37;;;;;;;8.89;91.76;100243.34;5028479;28;20203;-81
2023/11/08 03:31:33;;;;;;;3.97;2.70;;;;;;;8.87;92.38;100237.28;5036820;28;20216;-80
2023/11/08 03:34:03;;;;;;;10.20;3.57;;;;;;;8.86;92.76;100254.16;5024160;28;20283;-81
2023/11/08 03:36:30;;;;;;;4.63;2.40;;;;;;;8.86;92.27;100253.31;5024126;28;20194;-81
2023/11/08 03:38:57;;;;;;;2.80;2.50;;;;;;;8.85;92.67;100256.91;5024789;28;20199;-81
2023/11/08 03:41:24;;;;;;;5.77;2.73;;;;;;;8.86;93.40;100254.16;5030370;28;20301;-81
2023/11/08 03:43:51;;;;;;;4.30;2.73;;;;;;;8.85;92.79;100254.25;5024763;28;20234;-81
2023/11/08 03:46:17;;;;;;;4.50;3.07;;;;;;;8.84;93.26;100258.72;5019026;28;20215;-81
2023/11/08 03:48:44;;;;;;;5.80;3.60;;;;;;;8.85;93.66;100263.06;5019751;28;20211;-81
2023/11/08 03:51:12;;;;;;;4.73;2.97;;;;;;;8.84;93.86;100266.69;5026788;28;20227;-81
2023/11/08 03:53:38;;;;;;;4.47;3.53;;;;;;;8.87;94.35;100265.63;5022262;28;20199;-82
2023/11/08 03:56:05;;;;;;;5.00;3.03;;;;;;;8.88;94.07;100267.34;5019058;28;20207;-81
2023/11/08 03:58:32;;;;;;;3.33;3.07;;;;;;;8.87;94.04;100266.50;5024240;28;20198;-81
2023/11/08 04:00:58;;;;;;;4.00;2.63;;;;;;;8.90;93.83;100260.13;5026080;28;20234;-82
2023/11/08 04:03:25;;;;;;;3.80;2.80;;;;;;;8.90;94.03;100260.13;5025223;28;20229;-81
2023/11/08 04:05:54;;;;;;;5.27;3.60;;;;;;;8.89;94.29;100269.91;5023512;28;20211;-81
2023/11/08 04:08:22;;;;;;;5.20;3.17;;;;;;;8.88;94.86;100272.66;5028977;28;20210;-81
2023/11/08 04:10:49;;;;;;;3.67;3.30;;;;;;;8.86;94.24;100270.09;5022781;28;20233;-81
2023/11/08 04:13:15;;;;;;;3.70;3.20;;;;;;;8.86;94.58;100285.16;5019687;28;20275;-81
2023/11/08 04:15:42;;;;;;;4.70;3.20;;;;;;;8.87;94.64;100277.09;5027432;28;20213;-81
2023/11/08 04:18:08;;;;;;;4.03;3.47;;;;;;;8.84;94.85;100279.94;5024080;28;20207;-81
2023/11/08 04:20:35;;;;;;;4.40;3.20;;;;;;;8.84;95.13;100287.06;5018921;28;20293;-81
2023/11/08 04:23:01;;;;;;;4.87;3.13;;;;;;;8.85;94.97;100281.66;5025369;28;20215;-81
2023/11/08 04:25:29;;;;;;;5.43;3.27;;;;;;;8.81;95.67;100266.84;5028035;28;20225;-81
2023/11/08 04:27:55;;;;;;;5.17;3.60;;;;;;;8.81;95.71;100261.53;5020962;28;20206;-81
2023/11/08 04:30:22;;;;;;;4.43;3.27;;;;;;;8.82;95.08;100262.41;5020920;28;20227;-81
2023/11/08 04:32:49;;;;;;;5.13;3.10;;;;;;;8.85;95.16;100268.38;5022305;28;20203;-81
2023/11/08 04:35:17;;;;;;;3.90;3.50;;;;;;;8.85;94.78;100267.53;5028671;28;20199;-81
2023/11/08 04:37:43;;;;;;;4.10;3.70;;;;;;;8.84;94.82;100274.63;5025090;28;20221;-81
2023/11/08 04:40:11;;;;;;;7.23;3.70;;;;;;;8.84;95.30;100273.78;5021322;28;20219;-82
2023/11/08 04:42:39;;;;;;;4.50;3.80;;;;;;;8.85;94.54;100281.66;5021250;28;20207;-82
2023/11/08 04:45:06;;;;;;;5.13;3.50;;;;;;;8.83;94.70;100280.91;5021410;28;20227;-81
2023/11/08 04:47:33;;;;;;;5.03;3.90;;;;;;;8.86;95.53;100275.41;5022936;28;20223;-81
2023/11/08 04:49:59;;;;;;;4.13;3.53;;;;;;;8.86;95.42;100279.84;5022216;28;20230;-81
2023/11/08 04:52:26;;;;;;;5.17;3.83;;;;;;;8.86;94.98;100282.50;5028970;28;20260;-82
2023/11/08 04:54:53;;;;;;;7.77;4.23;;;;;;;8.85;95.49;100283.47;5027045;28;20230;-82
2023/11/08 04:57:19;;;;;;;4.50;3.90;;;;;;;8.86;95.27;100285.16;5026841;28;20207;-83
2023/11/08 04:59:48;;;;;;;5.27;3.90;;;;;;;8.85;95.16;100297.59;5029047;28;20623;-82
2023/11/08 05:02:16;;;;;;;5.73;4.37;;;;;;;8.89;94.74;100290.28;5027208;28;20211;-82
2023/11/08 05:04:45;;;;;;;9.90;4.87;;;;;;;8.86;94.98;100287.81;5028405;28;20227;-81
2023/11/08 05:07:12;;;;;;;5.57;4.23;;;;;;;8.85;94.42;100288.78;5025280;28;20230;-81
2023/11/08 05:09:39;;;;;;;5.43;4.13;;;;;;;8.86;94.76;100294.00;5030042;28;20354;-82
2023/11/08 05:12:07;;;;;;;4.67;3.90;;;;;;;8.90;94.59;100290.19;5028528;28;20819;-82
2023/11/08 05:14:33;;;;;;;5.43;4.47;;;;;;;8.89;94.03;100292.94;5035431;28;20209;-82
2023/11/08 05:17:02;;;;;;;7.23;4.53;;;;;;;8.89;94.43;100299.13;5028684;28;20598;-81
2023/11/08 05:19:29;;;;;;;6.43;4.43;;;;;;;8.90;94.44;100302.63;5027955;28;20447;-81
2023/11/08 05:21:55;;;;;;;5.87;4.70;;;;;;;8.90;93.89;100302.63;5021858;28;20223;-80
2023/11/08 05:24:23;;;;;;;5.23;4.73;;;;;;;8.89;94.64;100306.22;5025380;28;20829;-82
2023/11/08 05:26:49;;;;;;;7.17;4.70;;;;;;;8.92;94.70;100306.91;5026115;28;20214;-81
2023/11/08 05:29:17;;;;;;;6.23;5.00;;;;;;;8.90;94.17;100305.28;5025557;28;20199;-81
2023/11/08 05:31:43;;;;;;;8.33;5.23;;;;;;;8.90;94.16;100305.28;5028781;28;20206;-81
2023/11/08 05:34:11;;;;;;;6.87;5.77;;;;;;;8.93;94.23;100307.75;5018400;28;20206;-81
2023/11/08 05:36:38;;;;;;;9.00;6.33;;;;;;;8.94;94.13;100305.00;5023227;28;20207;-81
2023/11/08 05:39:05;;;;;;;7.00;5.50;;;;;;;8.93;94.98;100295.34;5020294;28;20303;-80
2023/11/08 05:41:31;;;;;;;6.97;5.27;;;;;;;8.93;94.64;100308.59;5014308;28;20223;-80
2023/11/08 05:43:59;;;;;;;5.53;4.80;;;;;;;8.93;95.21;100321.88;5005559;28;20228;-80
2023/11/08 05:46:25;;;;;;;5.03;4.53;;;;;;;8.93;94.84;100319.22;4998149;28;20202;-80
2023/11/08 05:48:52;;;;;;;6.63;4.40;;;;;;;8.97;94.78;100319.88;5013312;28;20591;-80
2023/11/08 05:51:20;;;;;;;7.60;4.63;;;;;;;9.02;94.63;100333.72;5013122;28;20222;-81
2023/11/08 05:53:48;;;;;;;5.33;4.67;;;;;;;9.03;94.13;100335.44;5014841;28;20577;-80
2023/11/08 05:56:15;;;;;;;6.63;5.17;;;;;;;9.01;94.36;100332.03;5013167;28;20210;-80
2023/11/08 05:58:41;;;;;;;6.30;5.10;;;;;;;9.04;93.80;100329.19;5010126;28;20207;-80
2023/11/08 06:01:09;;;;;;;7.30;4.83;;;;;;;9.03;93.77;100330.97;5012173;28;20223;-80
2023/11/08 06:03:35;;;;;;;6.60;4.93;;;;;;;9.03;94.43;100336.28;5013980;28;20566;-80
2023/11/08 06:06:02;;;;;;;5.73;5.23;;;;;;;9.02;94.68;100339.91;5014664;28;20237;-81
2023/11/08 06:08:29;;;;;;;8.37;5.80;;;;;;;9.04;94.38;100332.69;5013684;28;20203;-80
2023/11/08 06:10:57;;;;;;;6.00;5.30;;;;;;;9.03;94.10;100346.91;5002808;28;20231;-81
2023/11/08 06:13:23;;;;;;;6.47;5.57;;;;;;;9.03;93.92;100336.28;5012124;28;20204;-81
2023/11/08 06:15:50;;;;;;;5.73;4.97;;;;;;;9.04;94.38;100337.16;5013316;28;20207;-81
2023/11/08 06:18:20;;;;;;;6.10;5.13;;;;;;;9.03;93.92;100341.59;5009023;28;20222;-80
2023/11/08 06:20:46;;;;;;;7.60;5.43;;;;;;;9.00;93.94;100336.47;5013965;28;20250;-81
2023/11/08 06:23:13;;;;;;;7.17;5.67;;;;;;;9.00;94.06;100332.97;5009004;28;20581;-81
2023/11/08 06:25:40;;;;;;;8.17;6.10;;;;;;;9.00;93.86;100336.47;5015331;28;20226;-81
2023/11/08 06:28:07;;;;;;;10.73;6.73;;;;;;;8.98;93.26;100350.78;5015652;28;20574;-80
2023/11/08 06:30:33;;;;;;;7.73;5.83;;;;;;;8.96;93.52;100345.56;5008661;28;20227;-81
2023/11/08 06:33:00;;;;;;;10.37;6.57;;;;;;;8.94;94.01;100344.84;5001308;28;20217;-81
2023/11/08 06:35:26;;;;;;;9.77;6.27;;;;;;;8.95;93.21;100351.00;5010987;28;20222;-82
2023/11/08 06:37:53;;;;;;;7.60;6.63;;;;;;;8.96;93.16;100339.41;5013645;28;20203;-81
2023/11/08 06:40:19;;;;;;;6.77;5.53;;;;;;;8.99;93.53;100339.22;5009145;28;20326;-81
2023/11/08 06:42:47;;;;;;;6.40;5.60;;;;;;;8.96;92.80;100334.94;5008507;28;20219;-81
2023/11/08 06:45:14;;;;;;;6.77;5.90;;;;;;;8.92;93.26;100343.22;5005008;28;20235;-81
2023/11/08 06:47:40;;;;;;;7.33;6.07;;;;;;;8.92;93.04;100345.88;5008619;28;20220;-80
2023/11/08 06:50:09;;;;;;;7.80;5.77;;;;;;;8.92;93.10;100344.09;5009640;28;20604;-81
2023/11/08 06:52:37;;;;;;;6.93;5.83;;;;;;;8.91;93.30;100342.38;5013147;28;20228;-81
2023/11/08 06:55:04;;;;;;;9.97;6.57;;;;;;;8.89;93.44;100344.25;5014400;28;20207;-80
2023/11/08 06:57:31;;;;;;;8.83;6.60;;;;;;;8.90;93.12;100355.75;5013006;28;20199;-81
2023/11/08 06:59:59;;;;;;;11.57;7.50;;;;;;;8.93;93.06;100358.22;5013160;28;20230;-80
2023/11/08 07:02:26;;;;;;;7.03;5.77;;;;;;;8.98;93.48;100353.44;5015557;28;20285;-81
2023/11/08 07:04:52;;;;;;;9.47;5.27;;;;;;;8.97;93.29;100362.38;5012713;28;20234;-81
2023/11/08 07:07:19;;;;;;;7.07;6.20;;;;;;;8.99;93.42;100368.44;5008330;28;20214;-81
2023/11/08 07:09:47;;;;;;;7.30;5.40;;;;;;;8.97;93.37;100363.22;5012844;28;20707;-81
2023/11/08 07:12:14;;;;;;;7.10;5.60;;;;;;;8.98;93.59;100364.94;5012846;28;20211;-81
2023/11/08 07:14:40;;;;;;;6.27;5.33;;;;;;;9.02;93.98;100371.78;5001807;28;20211;-80
2023/11/08 07:17:08;;;;;;;7.17;5.57;;;;;;;9.01;93.90;100371.88;5006336;28;20222;-81
2023/11/08 07:19:34;;;;;;;9.47;5.43;;;;;;;9.04;93.96;100377.00;5010855;28;20222;-80
2023/11/08 07:22:01;;;;;;;7.83;5.47;;;;;;;9.00;93.85;100368.34;5012237;28;20659;-81
2023/11/08 07:24:27;;;;;;;6.07;4.90;;;;;;;9.00;94.28;100372.81;5012058;28;20231;-81
2023/11/08 07:26:54;;;;;;;6.33;5.20;;;;;;;8.99;94.30;100381.72;5005670;28;20226;-80
2023/11/08 07:29:22;;;;;;;5.13;4.60;;;;;;;9.03;94.24;100378.78;5016881;28;20217;-80
2023/11/08 07:31:51;;;;;;;6.10;4.77;;;;;;;9.06;94.12;100372.44;5012865;28;20290;-81
2023/11/08 07:34:20;;;;;;;5.20;4.70;;;;;;;9.09;93.80;100382.03;5012211;28;20211;-81
2023/11/08 07:36:47;;;;;;;5.60;4.37;;;;;;;9.11;93.17;100381.00;5010884;28;20206;-81
2023/11/08 07:39:15;;;;;;;4.87;3.43;;;;;;;9.14;93.15;100387.91;5011971;28;20207;-80
2023/11/08 07:41:42;;;;;;;5.63;3.80;;;;;;;9.14;92.63;100393.22;5012211;28;20207;-80
2023/11/08 07:44:09;;;;;;;4.80;3.47;;;;;;;9.14;91.70;100406.50;5006799;28;20214;-81
2023/11/08 07:46:36;;;;;;;6.30;3.73;;;;;;;9.14;91.74;100417.13;5007182;28;20230;-80
2023/11/08 07:49:02;;;;;;;4.90;3.40;;;;;;;9.16;91.64;100405.47;5002421;28;20241;-81
2023/11/08 07:51:30;;;;;;;5.03;3.80;;;;;;;9.18;92.23;100408.03;5013995;28;20285;-80
2023/11/08 07:53:59;;;;;;;5.23;3.57;;;;;;;9.20;92.22;100411.44;5010919;28;20213;-81
2023/11/08 07:56:26;;;;;;;4.47;3.40;;;;;;;9.19;91.74;100412.38;5012252;28;20213;-80
2023/11/08 07:58:53;;;;;;;3.57;3.00;;;;;;;9.21;91.51;100411.34;5012478;28;20237;-80
2023/11/08 08:01:20;;;;;;;3.60;3.00;;;;;;;9.21;91.26;100415.81;5023500;28;20637;-80
2023/11/08 08:03:47;;;;;;;3.60;2.90;;;;;;;9.28;90.67;100427.78;5017311;28;20213;-81
2023/11/08 08:06:14;;;;;;;5.00;3.20;;;;;;;9.29;91.04;100422.38;5011224;28;20226;-81
2023/11/08 08:08:43;;;;;;;4.83;3.10;;;;;;;9.27;90.90;100429.59;5003586;28;20764;-80
2023/11/08 08:11:10;;;;;;;6.43;3.10;;;;;;;9.28;90.42;100420.66;5006524;28;20227;-81
2023/11/08 08:13:37;;;;;;;3.53;3.20;;;;;;;9.31;90.89;100425.81;5011205;28;20238;-80
2023/11/08 08:16:04;;;;;;;3.20;2.97;;;;;;;9.36;91.15;100431.66;5005189;28;20211;-81
2023/11/08 08:18:31;;;;;;;5.80;3.20;;;;;;;9.37;90.39;100441.34;5005858;28;20213;-80
2023/11/08 08:20:59;;;;;;;5.43;3.10;;;;;;;9.37;90.10;100435.19;5007585;28;20223;-80
2023/11/08 08:23:25;;;;;;;5.93;3.07;;;;;;;9.41;90.73;100431.38;5001450;28;20211;-80
2023/11/08 08:25:54;;;;;;;3.80;3.30;;;;;;;9.43;90.33;100428.63;5012847;28;20415;-80
2023/11/08 08:28:20;;;;;;;6.33;3.30;;;;;;;9.43;90.76;100436.59;5015051;28;20204;-80
2023/11/08 08:30:47;;;;;;;3.87;2.90;;;;;;;9.46;90.66;100433.75;5009430;28;20633;-80
2023/11/08 08:33:15;;;;;;;6.93;3.13;;;;;;;9.53;90.35;100443.91;5005491;28;20204;-80
2023/11/08 08:35:41;;;;;;;3.60;2.73;;;;;;;9.56;90.72;100432.22;5009007;28;20215;-80
2023/11/08 08:38:08;;;;;;;4.13;2.90;;;;;;;9.59;90.36;100438.22;5009682;28;20210;-80
2023/11/08 08:40:34;;;;;;;4.00;2.93;;;;;;;9.64;89.90;100444.09;5011112;28;20238;-80
2023/11/08 08:43:04;;;;;;;3.33;2.70;;;;;;;9.65;89.20;100453.78;5011552;28;20202;-80
2023/11/08 08:45:31;;;;;;;6.53;2.90;;;;;;;9.66;88.81;100447.53;5011899;28;20566;-80
2023/11/08 08:47:59;;;;;;;7.17;3.10;;;;;;;9.66;88.60;100455.50;5010189;28;20206;-80
2023/11/08 08:50:25;;;;;;;3.30;3.00;;;;;;;9.68;88.95;100450.91;5013842;28;20231;-80
2023/11/08 08:52:52;;;;;;;3.83;2.53;;;;;;;9.69;89.11;100459.75;5013572;28;20691;-80
2023/11/08 08:55:19;;;;;;;3.27;2.40;;;;;;;9.68;89.39;100450.06;5019321;28;20209;-81
2023/11/08 08:57:46;;;;;;;7.10;2.50;;;;;;;9.67;89.15;100456.38;5014516;28;20246;-80
2023/11/08 09:00:15;;;;;;;4.23;2.83;;;;;;;9.66;89.54;100458.16;5011868;28;20281;-80
2023/11/08 09:02:42;;;;;;;4.77;2.60;;;;;;;9.72;89.29;100460.41;5009440;28;20614;-80
2023/11/08 09:05:09;;;;;;;3.70;2.10;;;;;;;9.73;89.02;100454.16;5005893;28;20237;-80
2023/11/08 09:07:36;;;;;;;5.73;2.20;;;;;;;9.78;89.09;100461.00;5008309;28;20199;-80
2023/11/08 09:10:04;;;;;;;2.20;1.70;;;;;;;9.74;88.92;100462.97;5009390;28;20254;-80
2023/11/08 09:12:31;;;;;;;4.57;2.00;;;;;;;9.78;88.44;100467.16;5011613;28;20574;-80
2023/11/08 09:14:57;;;;;;;4.17;2.30;;;;;;;9.78;87.66;100482.28;5014628;28;20200;-81
2023/11/08 09:17:25;;;;;;;4.63;2.03;;;;;;;9.76;87.15;100479.69;5019005;28;20206;-80
2023/11/08 09:19:52;;;;;;;3.13;2.03;;;;;;;9.75;87.50;100480.66;5010417;28;20599;-81
2023/11/08 09:22:18;;;;;;;3.43;2.47;;;;;;;9.77;87.74;100480.56;5008255;28;20210;-80
2023/11/08 09:24:45;;;;;;;3.03;1.47;;;;;;;9.67;86.91;100486.44;5016599;28;20238;-80
2023/11/08 09:27:11;;;;;;;6.83;1.83;;;;;;;9.72;87.16;100483.50;5010630;28;20218;-80
2023/11/08 09:29:38;;;;;;;6.83;2.10;;;;;;;9.74;86.64;100486.91;5013171;28;20258;-80
2023/11/08 09:32:05;;;;;;;3.80;2.10;;;;;;;9.74;86.21;100479.78;5014142;28;20211;-80
2023/11/08 09:34:33;;;;;;;2.50;1.60;;;;;;;9.78;85.44;100492.91;5013526;28;20203;-80
2023/11/08 09:37:00;;;;;;;4.10;2.07;;;;;;;9.78;85.91;100490.25;5012758;28;20733;-80
2023/11/08 09:39:27;;;;;;;3.53;1.80;;;;;;;9.81;85.94;100490.91;5008735;28;20322;-80
2023/11/08 09:41:56;;;;;;;3.63;2.00;;;;;;;9.82;85.50;100489.13;5006773;28;20652;-80
2023/11/08 09:44:24;;;;;;;3.43;1.83;;;;;;;9.87;85.63;100489.66;5014889;28;20207;-81
2023/11/08 09:46:52;;;;;;;2.80;2.20;;;;;;;9.92;85.65;100491.09;5014201;28;20232;-81
2023/11/08 09:49:19;;;;;;;3.70;1.83;;;;;;;9.93;85.13;100489.28;5003877;28;20571;-80
2023/11/08 09:51:47;;;;;;;3.50;1.80;;;;;;;9.93;85.23;100494.59;5011162;28;20212;-80
2023/11/08 09:54:14;;;;;;;4.73;1.90;;;;;;;9.95;85.43;100490.03;5009825;28;20217;-80
2023/11/08 09:56:44;;;;;;;3.53;1.47;;;;;;;9.98;85.58;100489.84;5013259;28;20216;-80
2023/11/08 09:59:11;;;;;;;2.17;1.50;;;;;;;10.01;85.44;100487.00;5011698;28;20260;-80
2023/11/08 10:01:39;;;;;;;5.53;2.00;;;;;;;9.99;84.67;100486.25;5010493;28;20230;-80
2023/11/08 10:04:09;;;;;;;3.93;2.10;;;;;;;10.03;85.08;100491.25;5011238;28;20670;-80
2023/11/08 10:06:36;;;;;;;4.50;2.40;;;;;;;10.04;84.88;100479.66;5016827;28;20224;-80
2023/11/08 10:09:05;;;;;;;5.97;2.47;;;;;;;10.05;84.61;100480.50;5010463;28;20575;-80
2023/11/08 10:11:35;;;;;;;6.63;4.10;;;;;;;10.08;84.81;100473.19;5013611;28;20256;-80
2023/11/08 10:14:02;;;;;;;3.93;2.63;;;;;;;10.14;84.73;100485.25;5011498;28;20298;-80
2023/11/08 10:16:28;;;;;;;3.87;2.07;;;;;;;10.17;83.13;100476.22;5010479;28;20203;-80
2023/11/08 10:18:56;;;;;;;4.87;2.00;;;;;;;10.18;83.01;100484.13;5016279;28;20210;-80
2023/11/08 10:21:25;;;;;;;2.60;1.90;;;;;;;10.17;82.32;100476.22;5007113;28;20233;-80
2023/11/08 10:23:53;;;;;;;4.73;1.70;;;;;;;10.17;82.26;100479.75;5009817;28;20236;-80
2023/11/08 10:26:22;;;;;;;4.70;2.10;;;;;;;10.18;81.96;100470.81;5012815;28;20216;-79
2023/11/08 10:28:56;;;;;;;5.17;2.03;;;;;;;10.24;82.17;100474.91;5004951;28;20242;-79
2023/11/08 10:31:31;;;;;;;3.67;1.60;;;;;;;10.31;81.76;100473.56;5010301;28;20226;-81
2023/11/08 10:33:58;;;;;;;3.80;1.80;;;;;;;10.34;81.79;100474.22;5008114;28;20848;-80
2023/11/08 10:36:25;;;;;;;4.47;1.83;;;;;;;10.45;81.70;100465.53;5012826;28;20203;-80
2023/11/08 10:38:52;;;;;;;3.93;2.20;;;;;;;10.50;80.63;100463.41;5017952;28;20207;-80
2023/11/08 10:41:21;;;;;;;5.20;3.00;;;;;;;10.53;80.72;100463.22;5008704;28;20364;-80
2023/11/08 10:43:47;;;;;;;3.77;2.57;;;;;;;10.61;80.46;100465.34;5012261;28;20209;-80
2023/11/08 10:46:14;;;;;;;7.63;3.53;;;;;;;10.64;79.16;100462.50;5011792;28;20449;-80
2023/11/08 10:48:43;;;;;;;4.10;2.37;;;;;;;10.60;79.30;100460.97;5002432;28;20295;-81
2023/11/08 10:51:12;;;;;;;3.93;2.40;;;;;;;10.59;79.33;100459.28;5012161;28;20227;-81
2023/11/08 10:53:38;;;;;;;6.20;2.00;;;;;;;10.62;78.83;100454.59;5018962;28;20207;-81
2023/11/08 10:56:08;;;;;;;3.00;2.00;;;;;;;10.62;78.83;100464.41;5010555;28;20211;-80
2023/11/08 10:58:38;;;;;;;3.50;1.80;;;;;;;10.62;78.55;100456.41;5012709;28;20203;-81
2023/11/08 11:01:06;;;;;;;5.37;2.53;;;;;;;10.64;78.14;100460.69;5006247;28;20288;-81
2023/11/08 11:03:33;;;;;;;3.90;2.03;;;;;;;10.65;78.04;100458.88;5003448;28;20235;-80
2023/11/08 11:06:02;;;;;;;4.80;2.20;;;;;;;10.64;78.22;100443.84;5012616;28;20252;-80
2023/11/08 11:08:34;;;;;;;4.43;1.50;;;;;;;10.69;78.34;100453.25;5018783;28;20234;-81
2023/11/08 11:11:01;;;;;;;5.47;2.20;;;;;;;10.72;78.08;100444.22;5012382;28;20272;-80
2023/11/08 11:13:33;;;;;;;2.13;1.40;;;;;;;10.78;76.99;100438.44;5010724;28;20216;-81
2023/11/08 11:16:08;;;;;;;6.33;2.23;;;;;;;10.75;77.02;100447.50;5005473;28;20632;-81
2023/11/08 11:18:41;;;;;;;5.00;2.03;;;;;;;10.71;76.83;100440.69;5009501;28;20652;-80
2023/11/08 11:21:16;;;;;;;4.67;1.80;;;;;;;10.71;76.90;100442.50;5011601;28;20221;-81
2023/11/08 11:23:43;;;;;;;4.27;2.07;;;;;;;10.73;76.83;100433.44;5007291;28;20210;-80
2023/11/08 11:26:10;;;;;;;5.20;1.77;;;;;;;10.76;76.38;100435.88;5012101;28;20224;-80
2023/11/08 11:28:51;;;;;;;6.37;2.23;;;;;;;10.81;76.77;100443.56;5012160;28;20247;-80
2023/11/08 11:31:32;;;;;;;3.00;1.70;;;;;;;10.83;76.87;100439.00;5012324;28;20707;-80